Time;durP1;ratioP1;P1;durP2;ratioP2;P2;SDS_P1;SDS_P2;PMS_P1;PMS_P2;Temp;Humidity;BMP_temperature;BMP_pressure;BME280_temperature;BME280_humidity;BME280_pressure;Samples;Min_cycle;Max_cycle;Signal;HPM_P1;HPM_P2
2023/06/10 00:04:46;;;;;;;7.68;4.30;;;24.50;65.00;;;;;;10100392;28;20494;-60
2023/06/10 00:09:37;;;;;;;4.95;4.00;;;24.50;65.20;;;;;;10133433;28;20028;-61
2023/06/10 00:14:28;;;;;;;5.60;4.30;;;24.30;65.60;;;;;;10133811;28;20046;-63
2023/06/10 00:19:18;;;;;;;5.30;4.13;;;24.30;65.70;;;;;;10127423;28;20111;-60
2023/06/10 00:24:11;;;;;;;5.93;4.30;;;24.20;65.80;;;;;;10116214;28;20394;-61
2023/06/10 00:29:02;;;;;;;7.03;4.80;;;24.30;65.70;;;;;;10115837;28;20122;-61
2023/06/10 00:33:53;;;;;;;7.30;4.97;;;24.30;65.70;;;;;;10117213;28;20149;-59
2023/06/10 00:38:43;;;;;;;4.75;4.25;;;24.20;65.90;;;;;;10110168;28;20032;-61
2023/06/10 00:43:34;;;;;;;5.20;4.50;;;24.20;66.10;;;;;;10131703;28;20422;-59
2023/06/10 00:48:26;;;;;;;5.05;4.43;;;24.20;66.10;;;;;;10126294;28;20481;-60
2023/06/10 00:53:17;;;;;;;5.28;4.65;;;24.10;66.50;;;;;;10132120;28;20035;-60
2023/06/10 00:58:08;;;;;;;6.18;4.38;;;24.00;66.60;;;;;;10121764;28;20044;-63
2023/06/10 01:02:59;;;;;;;5.25;4.57;;;23.90;66.90;;;;;;10117432;28;20120;-59
2023/06/10 01:08:04;;;;;;;5.75;4.50;;;23.80;67.10;;;;;;10121741;28;20516;-60
2023/06/10 01:12:54;;;;;;;4.93;4.43;;;23.70;67.40;;;;;;10132938;28;20033;-59
2023/06/10 01:17:57;;;;;;;6.85;4.72;;;23.80;67.40;;;;;;10132919;28;20032;-59
2023/06/10 01:22:48;;;;;;;4.97;4.40;;;23.70;67.70;;;;;;10120156;28;20407;-60
2023/06/10 01:27:42;;;;;;;5.05;4.47;;;23.60;67.60;;;;;;10109304;28;20054;-62
2023/06/10 01:32:49;;;;;;;6.15;4.40;;;23.50;67.80;;;;;;10113147;28;20051;-62
2023/06/10 01:37:42;;;;;;;5.97;5.03;;;23.40;68.20;;;;;;10125205;28;20032;-61
2023/06/10 01:42:33;;;;;;;4.97;4.30;;;23.30;68.50;;;;;;10122784;28;20032;-58
2023/06/10 01:47:24;;;;;;;7.40;4.80;;;23.20;68.60;;;;;;10128181;28;20024;-60
2023/06/10 01:52:15;;;;;;;5.38;4.47;;;23.10;68.80;;;;;;10121973;28;20559;-59
2023/06/10 01:57:06;;;;;;;5.68;4.47;;;23.30;68.60;;;;;;10122061;28;20032;-60
2023/06/10 02:01:56;;;;;;;5.68;5.05;;;23.20;68.90;;;;;;10111202;28;20520;-60
2023/06/10 02:06:48;;;;;;;6.00;4.72;;;23.10;69.10;;;;;;10110996;28;20025;-60
2023/06/10 02:11:38;;;;;;;6.20;5.45;;;23.20;69.10;;;;;;10126337;28;20075;-60
2023/06/10 02:16:29;;;;;;;6.95;5.07;;;22.90;69.50;;;;;;10126404;28;20056;-61
2023/06/10 02:21:20;;;;;;;5.40;4.20;;;22.80;69.80;;;;;;10118700;28;20036;-59
2023/06/10 02:26:10;;;;;;;5.10;4.57;;;22.70;70.10;;;;;;10110606;28;20028;-61
2023/06/10 02:31:01;;;;;;;4.65;4.20;;;22.70;70.00;;;;;;10112633;28;20048;-58
2023/06/10 02:35:51;;;;;;;7.28;5.47;;;22.70;70.10;;;;;;10136748;28;20120;-59
2023/06/10 02:40:42;;;;;;;6.53;5.20;;;22.70;70.10;;;;;;10134307;28;20123;-61
2023/06/10 02:45:33;;;;;;;5.82;4.88;;;22.70;70.20;;;;;;10133079;28;20032;-60
2023/06/10 02:50:24;;;;;;;7.50;5.43;;;22.60;70.50;;;;;;10131514;28;20043;-58
2023/06/10 02:55:15;;;;;;;5.95;5.20;;;22.40;70.90;;;;;;10134625;28;20037;-60
2023/06/10 03:00:10;;;;;;;5.30;4.40;;;22.40;70.90;;;;;;10136541;28;20553;-61
2023/06/10 03:05:00;;;;;;;10.32;6.35;;;22.40;70.90;;;;;;10144222;28;20438;-59
2023/06/10 03:09:51;;;;;;;6.93;6.07;;;22.40;70.80;;;;;;10146234;28;20032;-60
2023/06/10 03:14:42;;;;;;;8.80;5.88;;;22.10;71.30;;;;;;10127954;28;20032;-61
2023/06/10 03:19:33;;;;;;;6.75;6.15;;;22.20;71.30;;;;;;10131256;28;20099;-59
2023/06/10 03:24:23;;;;;;;6.82;5.38;;;22.00;71.80;;;;;;10115035;28;20020;-60
2023/06/10 03:29:14;;;;;;;6.57;5.40;;;22.00;72.00;;;;;;10116262;28;20040;-60
2023/06/10 03:34:05;;;;;;;7.63;5.15;;;22.00;72.00;;;;;;10120128;28;20513;-61
2023/06/10 03:38:56;;;;;;;7.28;5.25;;;22.10;71.90;;;;;;10131183;28;20032;-62
2023/06/10 03:43:47;;;;;;;8.05;6.00;;;22.10;71.80;;;;;;10126453;28;20024;-64
2023/06/10 03:48:38;;;;;;;7.53;5.32;;;22.00;72.20;;;;;;10114953;28;20128;-63
2023/06/10 03:53:29;;;;;;;7.28;5.97;;;21.70;72.50;;;;;;10122971;28;20056;-64
2023/06/10 03:58:19;;;;;;;8.73;5.90;;;21.70;72.70;;;;;;10115091;28;20036;-60
2023/06/10 04:03:14;;;;;;;7.07;5.45;;;21.80;72.80;;;;;;10137961;28;20032;-59
2023/06/10 04:08:05;;;;;;;8.43;5.10;;;21.80;72.80;;;;;;10146378;28;20025;-64
2023/06/10 04:12:55;;;;;;;10.77;6.30;;;21.90;72.80;;;;;;10126460;28;20041;-60
2023/06/10 04:17:46;;;;;;;6.28;5.55;;;22.00;72.50;;;;;;10131138;28;20032;-60
2023/06/10 04:22:37;;;;;;;5.93;5.30;;;22.00;72.80;;;;;;10126705;28;20570;-59
2023/06/10 04:27:27;;;;;;;8.75;5.40;;;21.70;73.40;;;;;;10113898;28;20556;-59
2023/06/10 04:32:18;;;;;;;6.32;4.90;;;21.70;73.60;;;;;;10117940;28;20063;-60
2023/06/10 04:37:09;;;;;;;10.27;5.40;;;21.60;73.80;;;;;;10126813;28;20112;-60
2023/06/10 04:42:00;;;;;;;8.15;5.30;;;21.60;74.00;;;;;;10132952;28;20079;-60
2023/06/10 04:46:51;;;;;;;8.18;5.55;;;21.80;73.80;;;;;;10130020;28;20086;-58
2023/06/10 04:51:41;;;;;;;6.43;4.55;;;21.80;73.80;;;;;;10120918;28;20717;-59
2023/06/10 04:56:32;;;;;;;7.45;5.40;;;21.80;74.00;;;;;;10116161;28;20483;-59
2023/06/10 05:01:23;;;;;;;6.50;5.57;;;21.80;74.00;;;;;;10121766;28;20032;-61
2023/06/10 05:06:14;;;;;;;6.35;4.43;;;21.90;73.90;;;;;;10122208;28;20055;-63
2023/06/10 05:11:04;;;;;;;6.80;4.78;;;22.00;73.90;;;;;;10133685;28;20489;-61
2023/06/10 05:15:55;;;;;;;5.75;5.07;;;21.80;74.10;;;;;;10129116;28;20031;-60
2023/06/10 05:20:46;;;;;;;6.63;4.70;;;21.90;74.20;;;;;;10126373;28;20041;-59
2023/06/10 05:25:37;;;;;;;6.60;4.35;;;21.90;74.00;;;;;;10110522;28;20024;-59
2023/06/10 05:30:27;;;;;;;5.32;4.80;;;22.00;74.20;;;;;;10118860;28;20060;-59
2023/06/10 05:35:18;;;;;;;6.95;4.93;;;22.00;74.20;;;;;;10115857;28;20108;-59
2023/06/10 05:40:09;;;;;;;5.18;4.28;;;22.10;74.00;;;;;;10133817;28;20086;-59
2023/06/10 05:45:00;;;;;;;5.72;4.80;;;22.10;74.00;;;;;;10131051;28;20016;-59
2023/06/10 05:49:51;;;;;;;8.63;5.72;;;22.00;74.20;;;;;;10139041;28;20033;-60
2023/06/10 05:54:42;;;;;;;7.82;4.88;;;22.00;74.40;;;;;;10121666;28;20033;-60
2023/06/10 05:59:32;;;;;;;5.95;5.00;;;21.90;74.70;;;;;;10125097;28;20029;-60
2023/06/10 06:04:23;;;;;;;6.68;5.18;;;22.00;74.50;;;;;;10110812;28;20044;-61
2023/06/10 06:09:13;;;;;;;5.60;4.53;;;22.10;74.50;;;;;;10125145;28;20025;-61
2023/06/10 06:14:04;;;;;;;6.45;4.85;;;22.20;74.30;;;;;;10125654;28;20040;-59
2023/06/10 06:18:55;;;;;;;5.25;4.22;;;22.20;75.00;;;;;;10122586;28;20502;-62
2023/06/10 06:23:45;;;;;;;6.10;4.88;;;22.20;74.50;;;;;;10102473;28;20414;-60
2023/06/10 06:28:36;;;;;;;7.90;5.13;;;22.20;74.70;;;;;;10114062;28;20116;-59
2023/06/10 06:33:27;;;;;;;6.60;5.15;;;22.20;74.70;;;;;;10122556;28;20505;-60
2023/06/10 06:38:17;;;;;;;7.05;5.45;;;22.30;74.70;;;;;;10133298;28;20028;-59
2023/06/10 06:43:08;;;;;;;5.55;4.53;;;22.40;74.60;;;;;;10126991;28;20445;-61
2023/06/10 06:47:59;;;;;;;5.88;4.93;;;22.70;74.10;;;;;;10121699;28;20036;-60
2023/06/10 06:52:49;;;;;;;7.47;5.03;;;22.50;74.50;;;;;;10111425;28;20039;-59
2023/06/10 06:57:40;;;;;;;5.32;4.30;;;22.60;74.60;;;;;;10112700;28;20435;-60
2023/06/10 07:02:32;;;;;;;7.72;5.10;;;22.80;74.20;;;;;;10105755;28;20033;-60
2023/06/10 07:07:23;;;;;;;5.55;4.70;;;22.90;74.30;;;;;;10111529;28;20502;-60
2023/06/10 07:12:14;;;;;;;6.18;4.40;;;22.70;74.70;;;;;;10125635;28;20045;-59
2023/06/10 07:17:05;;;;;;;9.98;5.43;;;22.90;74.60;;;;;;10125645;28;20119;-60
2023/06/10 07:21:55;;;;;;;7.15;5.50;;;23.10;75.00;;;;;;10120498;28;20028;-58
2023/06/10 07:26:46;;;;;;;11.85;5.75;;;23.20;74.20;;;;;;10124047;28;20063;-59
2023/06/10 07:31:36;;;;;;;6.72;5.22;;;23.30;74.00;;;;;;10123331;28;20430;-59
2023/06/10 07:36:29;;;;;;;7.13;5.45;;;23.40;74.10;;;;;;10128632;28;20379;-60
2023/06/10 07:41:20;;;;;;;6.32;5.20;;;23.60;73.90;;;;;;10153727;28;20355;-60
2023/06/10 07:46:10;;;;;;;6.85;4.85;;;23.90;73.60;;;;;;10133115;28;20037;-58
2023/06/10 07:51:01;;;;;;;7.15;4.53;;;24.00;73.50;;;;;;10126375;28;20045;-60
2023/06/10 07:55:51;;;;;;;8.27;6.05;;;24.00;73.50;;;;;;10127982;28;20033;-59
2023/06/10 08:00:42;;;;;;;7.45;5.60;;;24.00;73.60;;;;;;10119579;28;20029;-58
2023/06/10 08:05:33;;;;;;;5.95;4.57;;;24.10;73.50;;;;;;10114903;28;20399;-60
2023/06/10 08:10:23;;;;;;;6.47;4.30;;;24.30;73.30;;;;;;10135485;28;20098;-61
2023/06/10 08:15:14;;;;;;;5.18;4.28;;;24.20;73.50;;;;;;10136076;28;20033;-60
2023/06/10 08:20:06;;;;;;;8.30;5.03;;;24.10;73.70;;;;;;10130318;28;20021;-59
2023/06/10 08:24:57;;;;;;;6.38;4.78;;;24.30;73.40;;;;;;10117113;28;20486;-59
2023/06/10 08:29:47;;;;;;;7.50;5.35;;;24.50;73.40;;;;;;10115363;28;20042;-58
2023/06/10 08:34:38;;;;;;;8.07;4.95;;;24.60;73.10;;;;;;10117856;28;20036;-59
2023/06/10 08:39:31;;;;;;;5.05;4.47;;;24.70;73.00;;;;;;10127717;28;20032;-61
2023/06/10 08:44:30;;;;;;;6.32;4.72;;;24.80;72.80;;;;;;10131205;28;20091;-60
2023/06/10 08:49:24;;;;;;;6.15;4.32;;;24.70;73.10;;;;;;10125655;28;20110;-59
2023/06/10 08:54:23;;;;;;;6.45;4.47;;;24.80;73.00;;;;;;10124799;28;20086;-60
2023/06/10 08:59:16;;;;;;;5.13;3.97;;;25.10;72.90;;;;;;10130911;28;20083;-61
2023/06/10 09:04:07;;;;;;;6.15;4.85;;;25.20;72.70;;;;;;10116928;28;20040;-59
2023/06/10 09:08:58;;;;;;;6.72;4.72;;;25.50;72.50;;;;;;10126808;28;20113;-59
2023/06/10 09:13:49;;;;;;;5.22;4.72;;;25.30;72.50;;;;;;10128082;28;20182;-62
2023/06/10 09:18:40;;;;;;;6.47;4.95;;;25.40;72.50;;;;;;10123841;28;20166;-59
2023/06/10 09:23:31;;;;;;;5.28;4.78;;;25.50;72.60;;;;;;10135421;28;20039;-61
2023/06/10 09:28:21;;;;;;;5.63;4.45;;;25.60;72.40;;;;;;10109446;28;20045;-59
2023/06/10 09:33:18;;;;;;;7.13;4.75;;;25.90;72.00;;;;;;10113333;28;20037;-59
2023/06/10 09:38:08;;;;;;;6.25;4.95;;;26.00;71.70;;;;;;10133789;28;20036;-59
2023/06/10 09:43:00;;;;;;;5.40;4.25;;;26.00;71.60;;;;;;10128835;28;20029;-60
2023/06/10 09:47:53;;;;;;;5.45;4.93;;;26.30;71.20;;;;;;10124112;28;20016;-60
2023/06/10 09:52:46;;;;;;;5.60;3.95;;;26.30;71.00;;;;;;10119922;28;20027;-60
2023/06/10 09:57:38;;;;;;;5.22;4.55;;;26.30;71.00;;;;;;10113812;28;20399;-63
2023/06/10 10:02:29;;;;;;;9.77;4.15;;;26.60;70.60;;;;;;10107457;28;20024;-62
2023/06/10 10:07:20;;;;;;;5.55;3.85;;;26.50;70.60;;;;;;10118604;28;20021;-62
2023/06/10 10:12:14;;;;;;;6.50;4.07;;;26.60;70.20;;;;;;10127104;28;20495;-63
2023/06/10 10:17:09;;;;;;;4.93;3.92;;;26.60;70.10;;;;;;10123271;28;20029;-59
2023/06/10 10:22:09;;;;;;;6.03;4.05;;;27.00;69.70;;;;;;10125253;28;20060;-60
2023/06/10 10:27:05;;;;;;;5.85;3.83;;;27.10;69.50;;;;;;10108466;28;20106;-59
2023/06/10 10:32:00;;;;;;;5.03;4.15;;;27.20;69.30;;;;;;10117350;28;20060;-60
2023/06/10 10:36:51;;;;;;;4.65;3.72;;;27.20;69.00;;;;;;10130960;28;20093;-62
2023/06/10 10:41:42;;;;;;;4.80;3.90;;;27.10;69.00;;;;;;10130824;28;20035;-59
2023/06/10 10:46:49;;;;;;;5.60;3.35;;;27.50;68.60;;;;;;10126020;28;20056;-61
2023/06/10 10:51:58;;;;;;;5.47;3.55;;;27.40;68.40;;;;;;10118772;28;20040;-59
2023/06/10 10:57:12;;;;;;;3.67;3.25;;;27.50;68.10;;;;;;10143305;28;20100;-61
2023/06/10 11:02:03;;;;;;;;;;;27.60;68.30;;;;;;10134744;28;20051;-59
2023/06/10 11:06:54;;;;;;;4.25;3.85;;;27.80;67.40;;;;;;10128575;28;19912;-61
2023/06/10 11:11:51;;;;;;;5.00;2.97;;;27.80;67.50;;;;;;10133320;28;20041;-62
2023/06/10 11:16:43;;;;;;;4.65;3.40;;;27.80;67.10;;;;;;10131595;28;20451;-64
2023/06/10 11:22:05;;;;;;;5.30;3.42;;;28.20;66.90;;;;;;10126334;28;20517;-61
2023/06/10 11:27:18;;;;;;;5.25;3.95;;;28.20;66.50;;;;;;10122017;28;20139;-60
2023/06/10 11:32:09;;;;;;;3.92;3.25;;;28.30;66.20;;;;;;10128081;28;20437;-60
2023/06/10 11:37:00;;;;;;;4.05;3.28;;;28.30;66.10;;;;;;10133759;28;20028;-62
2023/06/10 11:41:51;;;;;;;4.22;3.30;;;28.40;65.80;;;;;;10136033;28;20037;-60
2023/06/10 11:46:42;;;;;;;6.25;3.65;;;28.70;65.30;;;;;;10132357;28;20122;-59
2023/06/10 11:51:35;;;;;;;3.63;3.08;;;28.80;64.90;;;;;;10125952;28;20153;-61
2023/06/10 11:56:28;;;;;;;3.40;2.80;;;29.10;64.50;;;;;;10132266;28;20116;-60
2023/06/10 12:01:23;;;;;;;4.00;3.33;;;29.10;64.50;;;;;;10110128;28;20735;-61
2023/06/10 12:06:14;;;;;;;6.65;4.28;;;29.30;64.20;;;;;;10124960;28;20194;-60
2023/06/10 12:11:06;;;;;;;3.67;3.10;;;29.60;64.00;;;;;;10114629;28;20123;-59
2023/06/10 12:16:07;;;;;;;3.75;3.45;;;29.80;63.90;;;;;;10130551;28;20453;-60
2023/06/10 12:20:58;;;;;;;4.65;4.07;;;29.80;63.70;;;;;;10126722;28;20031;-60
2023/06/10 12:25:53;;;;;;;4.68;3.03;;;30.50;63.70;;;;;;10114291;28;20144;-61
2023/06/10 12:30:43;;;;;;;3.72;3.42;;;30.70;63.00;;;;;;10120513;28;20098;-59
2023/06/10 12:35:34;;;;;;;3.72;2.97;;;31.00;62.90;;;;;;10118459;28;20091;-61
2023/06/10 12:40:33;;;;;;;5.93;3.25;;;30.80;62.60;;;;;;10134256;28;20031;-62
2023/06/10 12:45:32;;;;;;;4.43;3.78;;;30.60;62.30;;;;;;10128444;28;20054;-62
2023/06/10 12:50:22;;;;;;;3.70;2.90;;;30.60;62.10;;;;;;10121514;28;20036;-59
2023/06/10 12:55:13;;;;;;;7.63;3.38;;;31.60;61.80;;;;;;10129312;28;20489;-61
2023/06/10 13:00:08;;;;;;;3.92;3.50;;;32.80;61.50;;;;;;10118434;28;20036;-61
2023/06/10 13:04:59;;;;;;;3.83;3.53;;;32.00;61.00;;;;;;10124399;28;20052;-59
2023/06/10 13:09:49;;;;;;;3.10;2.80;;;31.30;61.10;;;;;;10116503;28;20044;-59
2023/06/10 13:14:40;;;;;;;8.52;3.45;;;31.00;61.00;;;;;;10127201;28;20103;-59
2023/06/10 13:19:31;;;;;;;3.58;3.05;;;31.70;60.60;;;;;;10125882;28;20035;-60
2023/06/10 13:24:22;;;;;;;3.83;3.47;;;33.90;59.40;;;;;;10110646;28;20088;-60
2023/06/10 13:29:14;;;;;;;4.47;2.60;;;35.20;58.10;;;;;;10110156;28;20217;-60
2023/06/10 13:34:04;;;;;;;3.80;3.10;;;35.80;57.70;;;;;;10105718;28;20499;-60
2023/06/10 13:38:55;;;;;;;3.45;3.05;;;35.80;57.00;;;;;;10134266;28;20032;-59
2023/06/10 13:43:46;;;;;;;3.30;2.83;;;36.10;56.00;;;;;;10132162;28;20032;-60
2023/06/10 13:48:36;;;;;;;3.40;3.00;;;33.10;57.20;;;;;;10137375;28;20289;-59
2023/06/10 13:53:27;;;;;;;5.72;3.42;;;33.90;57.10;;;;;;10137304;28;20498;-60
2023/06/10 13:58:18;;;;;;;3.40;3.07;;;36.10;55.20;;;;;;10127635;28;20032;-58
2023/06/10 14:03:08;;;;;;;3.53;3.23;;;36.30;54.00;;;;;;10135275;28;20040;-59
2023/06/10 14:08:02;;;;;;;5.47;3.50;;;36.60;53.50;;;;;;10136774;28;20096;-59
2023/06/10 14:12:53;;;;;;;3.47;3.15;;;37.00;53.10;;;;;;10131338;28;20033;-58
2023/06/10 14:17:44;;;;;;;3.45;3.15;;;36.60;52.40;;;;;;10102050;28;20032;-60
2023/06/10 14:22:34;;;;;;;;;;;37.00;52.30;;;;;;10139377;28;20029;-59
2023/06/10 14:27:25;;;;;;;3.27;3.07;;;37.60;51.30;;;;;;10116675;28;19912;-59
2023/06/10 14:32:16;;;;;;;3.88;3.47;;;37.70;52.10;;;;;;10130357;28;20549;-59
2023/06/10 14:37:07;;;;;;;3.35;3.05;;;37.70;51.60;;;;;;10134558;28;20502;-60
2023/06/10 14:41:58;;;;;;;3.65;3.33;;;38.30;51.20;;;;;;10135465;28;20031;-58
2023/06/10 14:46:48;;;;;;;3.28;2.97;;;38.70;50.70;;;;;;10130963;28;20035;-59
2023/06/10 14:51:39;;;;;;;3.58;3.00;;;38.60;50.30;;;;;;10135113;28;20051;-60
2023/06/10 14:56:30;;;;;;;4.97;3.28;;;37.90;50.30;;;;;;10135057;28;20025;-58
2023/06/10 15:01:20;;;;;;;4.07;3.33;;;37.30;50.60;;;;;;10135651;28;20458;-59
2023/06/10 15:06:11;;;;;;;3.90;3.58;;;37.40;50.50;;;;;;10135629;28;20032;-59
2023/06/10 15:11:02;;;;;;;3.78;3.25;;;37.50;50.50;;;;;;10130631;28;20064;-59
2023/06/10 15:15:53;;;;;;;6.25;3.03;;;37.40;50.50;;;;;;10126689;28;20048;-58
2023/06/10 15:20:43;;;;;;;5.47;3.30;;;37.40;50.60;;;;;;10124746;28;20041;-59
2023/06/10 15:25:34;;;;;;;3.20;2.92;;;37.60;50.40;;;;;;10115350;28;20035;-59
2023/06/10 15:30:25;;;;;;;5.38;3.38;;;38.10;50.00;;;;;;10116431;28;20057;-60
2023/06/10 15:35:15;;;;;;;3.40;3.10;;;38.20;50.00;;;;;;10091787;28;20108;-61
2023/06/10 15:40:07;;;;;;;3.25;3.05;;;38.50;49.60;;;;;;10131817;28;20025;-62
2023/06/10 15:44:57;;;;;;;3.53;3.20;;;38.60;49.30;;;;;;10123719;28;20070;-59
2023/06/10 15:49:48;;;;;;;;;;;38.40;49.20;;;;;;10120555;28;20397;-60
2023/06/10 15:54:38;;;;;;;3.63;3.33;;;38.70;48.60;;;;;;10128462;28;20102;-58
2023/06/10 15:59:29;;;;;;;;;;;38.50;48.90;;;;;;10120643;28;20048;-59
2023/06/10 16:04:20;;;;;;;4.03;3.47;;;39.10;47.90;;;;;;10098934;28;20055;-61
2023/06/10 16:09:10;;;;;;;;;;;39.20;47.90;;;;;;10112197;28;20074;-61
2023/06/10 16:14:01;;;;;;;3.13;2.77;;;39.80;47.30;;;;;;10132744;28;20011;-62
2023/06/10 16:18:52;;;;;;;3.60;3.30;;;41.20;46.50;;;;;;10127812;28;20036;-63
2023/06/10 16:23:43;;;;;;;3.35;3.05;;;41.30;46.30;;;;;;10120369;28;20566;-62
2023/06/10 16:28:34;;;;;;;5.22;3.28;;;41.90;45.40;;;;;;10115592;28;20124;-63
2023/06/10 16:33:24;;;;;;;4.50;3.40;;;42.10;44.90;;;;;;10121289;28;20037;-60
2023/06/10 16:38:15;;;;;;;4.68;4.18;;;42.10;44.90;;;;;;10113355;28;20078;-63
2023/06/10 16:43:06;;;;;;;3.78;3.47;;;43.20;44.20;;;;;;10133443;28;20051;-59
2023/06/10 16:47:56;;;;;;;2.78;2.58;;;43.10;44.00;;;;;;10127459;28;20029;-60
2023/06/10 16:52:47;;;;;;;4.55;3.30;;;42.20;44.20;;;;;;10121888;28;20037;-63
2023/06/10 16:57:37;;;;;;;2.97;2.78;;;42.10;44.20;;;;;;10119817;28;20415;-59
2023/06/10 17:02:28;;;;;;;5.10;3.13;;;42.10;43.90;;;;;;10122873;28;20036;-59
2023/06/10 17:07:20;;;;;;;3.83;3.40;;;42.60;43.60;;;;;;10120064;28;20042;-59
2023/06/10 17:12:10;;;;;;;4.85;3.08;;;43.20;43.30;;;;;;10132834;28;20408;-58
2023/06/10 17:17:01;;;;;;;3.70;2.97;;;42.80;43.30;;;;;;10124418;28;20021;-60
2023/06/10 17:21:52;;;;;;;3.42;2.55;;;41.90;43.80;;;;;;10122933;28;20058;-59
2023/06/10 17:26:42;;;;;;;3.30;3.00;;;41.30;44.10;;;;;;10116154;28;20565;-58
2023/06/10 17:31:33;;;;;;;3.25;2.65;;;41.30;44.10;;;;;;10129999;28;20410;-60
2023/06/10 17:36:24;;;;;;;3.97;3.10;;;40.90;44.30;;;;;;10119678;28;20059;-59
2023/06/10 17:41:14;;;;;;;3.35;3.00;;;39.80;44.70;;;;;;10135528;28;20044;-59
2023/06/10 17:46:05;;;;;;;3.25;2.95;;;39.10;45.20;;;;;;10134830;28;20078;-59
2023/06/10 17:50:55;;;;;;;;;;;38.60;45.40;;;;;;10132890;28;20028;-59
2023/06/10 17:55:46;;;;;;;5.30;3.10;;;38.00;45.90;;;;;;10133915;28;20038;-59
2023/06/10 18:00:37;;;;;;;3.93;3.53;;;37.60;47.10;;;;;;10132265;28;20499;-58
2023/06/10 18:05:27;;;;;;;3.60;3.30;;;36.10;47.50;;;;;;10134764;28;20295;-62
2023/06/10 18:10:19;;;;;;;4.05;3.20;;;34.20;49.00;;;;;;10134100;28;20513;-59
2023/06/10 18:15:10;;;;;;;3.30;2.85;;;33.50;49.40;;;;;;10120310;28;20041;-61
2023/06/10 18:20:02;;;;;;;3.97;3.30;;;33.00;49.80;;;;;;10131032;28;20037;-61
2023/06/10 18:24:53;;;;;;;5.00;3.15;;;32.50;50.40;;;;;;10111730;28;20025;-60
2023/06/10 18:29:43;;;;;;;3.95;3.28;;;32.30;50.70;;;;;;10109123;28;20049;-59
2023/06/10 18:34:35;;;;;;;3.90;3.38;;;32.00;51.20;;;;;;10125790;28;20040;-60
2023/06/10 18:39:27;;;;;;;6.20;4.70;;;31.80;51.40;;;;;;10130261;28;20048;-59
2023/06/10 18:44:17;;;;;;;4.38;3.97;;;31.80;51.60;;;;;;10125684;28;20029;-59
2023/06/10 18:49:08;;;;;;;5.32;3.72;;;31.60;51.80;;;;;;10122044;28;20051;-60
2023/06/10 18:53:58;;;;;;;4.50;3.25;;;31.50;52.20;;;;;;10127902;28;20377;-60
2023/06/10 18:58:49;;;;;;;5.20;3.92;;;31.30;52.50;;;;;;10116204;28;20082;-60
2023/06/10 19:03:40;;;;;;;5.80;3.33;;;31.30;52.60;;;;;;10131083;23;20051;-69
2023/06/10 19:08:31;;;;;;;3.78;3.08;;;31.10;53.10;;;;;;10124043;28;20033;-72
2023/06/10 19:13:22;;;;;;;4.05;3.33;;;30.90;53.30;;;;;;10118812;28;20051;-67
2023/06/10 19:18:13;;;;;;;4.00;3.15;;;30.80;53.60;;;;;;10128376;28;20028;-67
2023/06/10 19:23:04;;;;;;;3.83;3.53;;;30.60;53.90;;;;;;10130636;28;20047;-69
2023/06/10 19:27:54;;;;;;;7.00;3.20;;;30.50;54.30;;;;;;10141013;28;20033;-68
2023/06/10 19:32:45;;;;;;;3.78;3.08;;;30.40;54.40;;;;;;10116344;28;20045;-68
2023/06/10 19:37:36;;;;;;;3.80;3.40;;;30.30;54.80;;;;;;10123993;28;20456;-67
2023/06/10 19:42:27;;;;;;;3.83;3.47;;;30.20;55.00;;;;;;10135093;28;20052;-67
2023/06/10 19:47:17;;;;;;;3.17;2.88;;;30.10;55.10;;;;;;10136326;28;20021;-68
2023/06/10 19:52:08;;;;;;;4.63;3.47;;;30.00;55.30;;;;;;10109754;28;20081;-68
2023/06/10 19:56:59;;;;;;;5.63;3.47;;;29.80;55.50;;;;;;10140897;28;20021;-74
2023/06/10 20:01:50;;;;;;;3.97;3.38;;;29.70;55.70;;;;;;10130591;28;20045;-68
2023/06/10 20:06:41;;;;;;;4.80;3.33;;;29.70;55.90;;;;;;10135064;28;20033;-71
2023/06/10 20:11:31;;;;;;;3.75;3.35;;;29.70;55.90;;;;;;10135843;28;20064;-68
2023/06/10 20:16:22;;;;;;;4.10;3.50;;;29.70;56.10;;;;;;10121328;28;20029;-66
2023/06/10 20:21:13;;;;;;;5.30;3.63;;;29.60;56.40;;;;;;10127465;28;20162;-68
2023/06/10 20:26:06;;;;;;;3.90;3.33;;;29.50;56.50;;;;;;10129034;28;20032;-69
2023/06/10 20:30:57;;;;;;;4.55;3.40;;;29.50;56.70;;;;;;10115499;28;20475;-69
2023/06/10 20:35:47;;;;;;;5.30;3.50;;;29.40;56.70;;;;;;10117656;28;20029;-67
2023/06/10 20:40:38;;;;;;;5.72;3.30;;;29.40;56.80;;;;;;10118392;28;20053;-71
2023/06/10 20:45:29;;;;;;;4.18;3.13;;;29.40;57.00;;;;;;10122955;28;20112;-69
2023/06/10 20:50:20;;;;;;;5.22;4.10;;;29.30;57.40;;;;;;10113419;28;20051;-68
2023/06/10 20:55:10;;;;;;;9.23;5.68;;;29.20;57.40;;;;;;10126729;28;20033;-69
2023/06/10 21:00:01;;;;;;;6.90;4.25;;;29.10;57.50;;;;;;10117964;28;20029;-66
2023/06/10 21:04:52;;;;;;;6.88;4.70;;;29.10;57.70;;;;;;10111742;28;20122;-66
2023/06/10 21:09:42;;;;;;;4.78;3.55;;;29.00;57.90;;;;;;10116572;28;20021;-70
2023/06/10 21:14:33;;;;;;;5.13;3.47;;;28.90;58.20;;;;;;10111364;28;20048;-66
2023/06/10 21:19:24;;;;;;;5.20;3.70;;;28.90;58.30;;;;;;10119059;28;20449;-67
2023/06/10 21:24:14;;;;;;;4.90;3.88;;;28.80;58.60;;;;;;10117976;28;20059;-67
2023/06/10 21:29:05;;;;;;;4.38;3.42;;;28.70;58.60;;;;;;10120315;28;20036;-68
2023/06/10 21:33:56;;;;;;;7.20;4.13;;;28.60;58.90;;;;;;10112959;28;20143;-66
2023/06/10 21:38:47;;;;;;;5.82;3.95;;;28.60;59.00;;;;;;10119520;28;20037;-68
2023/06/10 21:43:38;;;;;;;9.32;6.00;;;28.50;59.20;;;;;;10114034;28;20181;-67
2023/06/10 21:48:31;;;;;;;7.57;4.50;;;28.40;59.30;;;;;;10119533;28;20029;-70
2023/06/10 21:53:23;;;;;;;6.05;4.55;;;28.40;59.70;;;;;;10120034;28;20037;-66
2023/06/10 21:58:14;;;;;;;5.88;4.38;;;28.30;59.70;;;;;;10129701;28;20112;-69
2023/06/10 22:03:04;;;;;;;6.93;4.22;;;28.20;60.00;;;;;;10111168;28;20135;-68
2023/06/10 22:07:55;;;;;;;7.50;4.63;;;28.10;60.10;;;;;;10118022;28;20024;-68
2023/06/10 22:12:46;;;;;;;7.05;4.60;;;28.00;60.30;;;;;;10117844;28;20036;-68
2023/06/10 22:17:36;;;;;;;4.35;3.90;;;27.90;60.30;;;;;;10122483;28;20021;-67
2023/06/10 22:22:27;;;;;;;7.07;4.45;;;27.90;60.60;;;;;;10121751;28;20029;-69
2023/06/10 22:27:18;;;;;;;5.38;4.88;;;27.80;60.80;;;;;;10122501;28;20365;-69
2023/06/10 22:32:08;;;;;;;8.77;4.85;;;27.70;60.80;;;;;;10115325;28;20032;-69
2023/06/10 22:36:59;;;;;;;5.63;4.45;;;27.70;61.00;;;;;;10127193;28;20276;-70
2023/06/10 22:41:50;;;;;;;4.85;4.10;;;27.60;61.10;;;;;;10119358;28;20052;-67
2023/06/10 22:46:41;;;;;;;6.70;4.15;;;27.60;61.30;;;;;;10125334;28;20147;-69
2023/06/10 22:51:32;;;;;;;8.23;5.28;;;27.50;61.40;;;;;;10127457;28;20583;-67
2023/06/10 22:56:23;;;;;;;5.63;4.00;;;27.50;61.40;;;;;;10111140;28;20486;-66
2023/06/10 23:01:14;;;;;;;6.75;4.13;;;27.50;61.50;;;;;;10124774;28;20422;-66
2023/06/10 23:06:05;;;;;;;8.38;4.65;;;27.50;61.50;;;;;;10123681;28;20035;-68
2023/06/10 23:10:55;;;;;;;10.77;6.07;;;27.40;61.60;;;;;;10126726;28;20047;-67
2023/06/10 23:15:46;;;;;;;6.70;4.57;;;27.40;61.70;;;;;;10129393;28;20033;-66
2023/06/10 23:20:36;;;;;;;5.90;4.35;;;27.40;62.00;;;;;;10125728;28;20041;-66
2023/06/10 23:25:28;;;;;;;6.93;4.35;;;27.30;62.10;;;;;;10114403;28;20088;-66
2023/06/10 23:30:18;;;;;;;7.97;5.05;;;27.20;62.30;;;;;;10131402;28;20044;-67
2023/06/10 23:35:10;;;;;;;6.50;4.53;;;27.10;62.60;;;;;;10133541;28;20488;-67
2023/06/10 23:40:01;;;;;;;8.95;4.45;;;27.10;63.00;;;;;;10118348;28;20103;-66
2023/06/10 23:44:52;;;;;;;5.95;3.72;;;27.00;63.00;;;;;;10126044;28;20040;-67
2023/06/10 23:49:43;;;;;;;4.22;3.13;;;27.00;63.30;;;;;;10124118;28;20391;-67
2023/06/10 23:54:33;;;;;;;4.50;3.58;;;27.00;63.30;;;;;;10113077;28;20045;-67
2023/06/10 23:59:25;;;;;;;4.55;3.38;;;27.00;63.20;;;;;;10127601;28;20033;-65
